Página principal
METAR-TAF:

METAR-TAF

Aeroportos :

Sakon Nakhon, Tailândia

latitude: 17-11-42N, longitude: 104-07-08E, altura: 161 m

Observação actual do tempo

O boletim foi feito há 41 minutos, às 04:00 UTC
Vento 6 kt de es-sudeste, variando entre este e sudeste
Temperatura 29°C
Humidade 58%
Pressão 1014 hPa
Visibilidade: 6000 m

METAR: VTUI 230400Z 11006KT 080V140 6000 NSC 29/20 Q1014 NOSIG

Hora: 11:41 (04:41 UTC)

Previsão

O boletim foi feito há 5 horas e 41 minutos, às 23:00 UTC
Previsão válida de 23 às 00 UTC a 23 às 24 UTC
Vento 3 kt de este
Visibilidade: 5000 m
neblina
Tornando-se
de 23 às 02 UTC a 23 às 04 UTC
Visibilidade: 9000 m

TAF: VTUI 222300Z 2300/2324 08003KT 5000 BR NSC BECMG 2302/2304 9000 NSW

Observações e previsões do tempo de mais de 4000 aeroportos (mensagens METAR e TAF).

As estações disponíveis são os pontos amarelos e vermelhos sobre o mapa.

Mova o rato sobre o mapa para ver o nome da estação.

Depois clique no ponto para visualizar as observações e previsões meteorológicas.

Para alterar o mapa : clique nos botões verdes com uma cruz preta para aumentar o zoom; no botão verde com uma pitada de zoom; ou nas setas verdes para mapas adjacentes.


METAR-TAF: